Time;durP1;ratioP1;P1;durP2;ratioP2;P2;SDS_P1;SDS_P2;PMS_P1;PMS_P2;Temp;Humidity;BMP_temperature;BMP_pressure;BME280_temperature;BME280_humidity;BME280_pressure;Samples;Min_cycle;Max_cycle;Signal;HPM_P1;HPM_P2
2021/03/20 00:01:00;;;;;;;62.9;45.6;;;;;;;-1.74;100;98962.88;;;;
2021/03/20 00:10:58;;;;;;;67.4;49.5;;;;;;;-1.65;100;98974.75;;;;
2021/03/20 00:20:55;;;;;;;56.7;46;;;;;;;-1.66;100;98978.41;;;;
2021/03/20 00:30:52;;;;;;;48.2;36.4;;;;;;;-1.64;100;98979.84;;;;
2021/03/20 00:40:49;;;;;;;50.3;37.3;;;;;;;-1.65;100;98982.68;;;;
2021/03/20 00:50:47;;;;;;;33.4;27.4;;;;;;;-1.69;100;98982.31;;;;
2021/03/20 01:00:44;;;;;;;33.6;22.6;;;;;;;-1.79;100;98995.22;;;;
2021/03/20 01:10:41;;;;;;;30.1;20.2;;;;;;;-1.8;100;98990.95;;;;
2021/03/20 01:20:39;;;;;;;24.2;18.3;;;;;;;-1.69;100;98994.71;;;;
2021/03/20 01:30:40;;;;;;;11.6;7.8;;;;;;;-1.92;100;98997.98;;;;
2021/03/20 01:40:33;;;;;;;10.3;7.3;;;;;;;-2.12;100;99008.7;;;;
2021/03/20 01:50:31;;;;;;;9.2;6.3;;;;;;;-2.17;100;99011.19;;;;
2021/03/20 02:00:28;;;;;;;9.3;5;;;;;;;-2.3;100;99011.3;;;;
2021/03/20 02:10:25;;;;;;;12.8;6.9;;;;;;;-2.28;100;99019.8;;;;
2021/03/20 02:20:22;;;;;;;10.3;5.5;;;;;;;-2.51;100;99029.3;;;;
2021/03/20 02:30:20;;;;;;;8.9;5.3;;;;;;;-2.49;100;99033.34;;;;
2021/03/20 02:40:17;;;;;;;9.9;6.2;;;;;;;-2.52;100;99043.51;;;;
2021/03/20 02:50:14;;;;;;;8.1;4.6;;;;;;;-2.48;100;99045.52;;;;
2021/03/20 03:00:11;;;;;;;16;6.7;;;;;;;-2.48;100;99053.44;;;;
2021/03/20 03:20:05;;;;;;;10.3;7.1;;;;;;;-2.51;100;99085.53;;;;
2021/03/20 03:30:03;;;;;;;14;8.1;;;;;;;-2.52;100;99086.54;;;;
2021/03/20 03:40:00;;;;;;;9.9;5.4;;;;;;;-2.65;99.37012;99102.44;;;;
2021/03/20 03:49:57;;;;;;;10.1;4.6;;;;;;;-2.86;98.86426;99121.19;;;;
2021/03/20 03:59:54;;;;;;;6.4;3.4;;;;;;;-3.07;100;99127.53;;;;
2021/03/20 04:09:51;;;;;;;9.2;5.3;;;;;;;-3.35;100;99148.05;;;;
2021/03/20 04:19:48;;;;;;;7.9;4.2;;;;;;;-3.51;100;99157.2;;;;
2021/03/20 04:29:45;;;;;;;6.7;4.3;;;;;;;-3.51;100;99175.64;;;;
2021/03/20 04:39:42;;;;;;;9;5.2;;;;;;;-3.59;100;99189;;;;
2021/03/20 04:49:43;;;;;;;6.9;4.6;;;;;;;-3.54;100;99199.76;;;;
2021/03/20 04:59:43;;;;;;;7;4.3;;;;;;;-3.56;100;99213.12;;;;
2021/03/20 05:09:33;;;;;;;10.9;4.2;;;;;;;-3.55;100;99227.11;;;;
2021/03/20 05:19:31;;;;;;;8.3;5;;;;;;;-3.51;100;99241.5;;;;
2021/03/20 05:29:30;;;;;;;7.3;4;;;;;;;-3.34;100;99242.73;;;;
2021/03/20 05:39:25;;;;;;;9.6;5.6;;;;;;;-3.44;100;99266.03;;;;
2021/03/20 05:49:22;;;;;;;7;3.8;;;;;;;-3.42;100;99271.09;;;;
2021/03/20 05:59:19;;;;;;;7.9;4.9;;;;;;;-3.33;100;99289.13;;;;
2021/03/20 06:09:16;;;;;;;7.7;4.8;;;;;;;-3.06;98.36426;99290.8;;;;
2021/03/20 06:19:13;;;;;;;12.4;6.9;;;;;;;-2.79;90.5957;99294.23;;;;
2021/03/20 06:29:10;;;;;;;6.7;4.3;;;;;;;-2.71;86.34082;99309.05;;;;
2021/03/20 06:39:07;;;;;;;12.1;5.6;;;;;;;-2.81;84.5957;99324.47;;;;
2021/03/20 06:49:04;;;;;;;7.6;5.2;;;;;;;-2.91;84.28125;99332.77;;;;
2021/03/20 06:59:01;;;;;;;12.6;6.6;;;;;;;-2.8;83.6377;99341.89;;;;
2021/03/20 07:08:58;;;;;;;10.2;6.4;;;;;;;-2.73;82.22168;99348.8;;;;
2021/03/20 07:18:56;;;;;;;9.8;8;;;;;;;-2.69;82.77637;99354.48;;;;
2021/03/20 07:28:53;;;;;;;11.4;8.8;;;;;;;-2.78;82.5166;99358.34;;;;
2021/03/20 07:38:50;;;;;;;12.7;8.9;;;;;;;-2.91;82.63379;99371.5;;;;
2021/03/20 07:48:47;;;;;;;14.7;6.9;;;;;;;-2.73;82.82227;99374.36;;;;
2021/03/20 07:58:44;;;;;;;14;7.3;;;;;;;-2.18;81.43262;99384.47;;;;
2021/03/20 08:08:41;;;;;;;9.4;5.3;;;;;;;-1.66;78.82617;99393.27;;;;
2021/03/20 08:18:38;;;;;;;9.6;6.6;;;;;;;-0.41;73.5791;99395.16;;;;
2021/03/20 08:28:46;;;;;;;9.1;6.7;;;;;;;-0.09;72.60059;99404.66;;;;
2021/03/20 08:39:00;;;;;;;12.9;6.1;;;;;;;-0.48;71.54492;99405.81;;;;
2021/03/20 08:48:40;;;;;;;11.6;6.1;;;;;;;-0.33;69.20898;99408.14;;;;
2021/03/20 08:58:45;;;;;;;5.9;3.9;;;;;;;0.41;69.69629;99398.22;;;;
2021/03/20 09:08:27;;;;;;;6.1;4.6;;;;;;;0.34;66.86719;99409.92;;;;
2021/03/20 09:18:23;;;;;;;10.6;4.2;;;;;;;0.62;66.48047;99420.82;;;;
2021/03/20 09:28:27;;;;;;;6.5;4;;;;;;;0.43;64.22949;99427.97;;;;
2021/03/20 09:38:18;;;;;;;11.1;6.3;;;;;;;0.77;65.06543;99418.57;;;;
2021/03/20 09:48:15;;;;;;;14.1;8.2;;;;;;;1.71;68.91016;99428.44;;;;
2021/03/20 09:58:13;;;;;;;12.6;8.5;;;;;;;1.93;65.28809;99437.48;;;;
2021/03/20 10:08:10;;;;;;;14;8.2;;;;;;;1.89;65.51367;99441.63;;;;
2021/03/20 10:18:09;;;;;;;12.4;8.8;;;;;;;0.37;67.9873;99454.55;;;;
2021/03/20 10:28:06;;;;;;;9.6;6.5;;;;;;;0.48;65.49707;99446.69;;;;
2021/03/20 10:38:03;;;;;;;15.5;7;;;;;;;1.96;61.84863;99446.83;;;;
2021/03/20 10:48:01;;;;;;;11.5;8.1;;;;;;;0.89;65.87012;99463.74;;;;
2021/03/20 10:57:59;;;;;;;20.8;9.6;;;;;;;0.59;67.4707;99458.37;;;;
2021/03/20 11:07:56;;;;;;;16.9;8.8;;;;;;;0.51;65.33496;99450.73;;;;
2021/03/20 11:17:54;;;;;;;10.6;6;;;;;;;1.34;62.60254;99441.07;;;;
2021/03/20 11:27:51;;;;;;;11.5;7.6;;;;;;;1.37;60.25488;99442.45;;;;
2021/03/20 11:37:49;;;;;;;12.7;8.6;;;;;;;1.59;62.0957;99435.59;;;;
2021/03/20 11:47:47;;;;;;;11.8;7.6;;;;;;;1.5;63.64551;99436.94;;;;
2021/03/20 11:57:44;;;;;;;11.8;9.6;;;;;;;2.18;60.66992;99409.84;;;;
2021/03/20 12:07:42;;;;;;;11.5;7.6;;;;;;;2.91;60.17188;99400.19;;;;
2021/03/20 12:17:40;;;;;;;15.6;11.3;;;;;;;2.11;59.05762;99403.84;;;;
2021/03/20 12:27:37;;;;;;;13.3;7.7;;;;;;;1.92;57.6875;99395.98;;;;
2021/03/20 12:37:35;;;;;;;15;8.2;;;;;;;0.88;59.78613;99387.81;;;;
2021/03/20 12:47:33;;;;;;;23.8;12.9;;;;;;;0.94;59.90625;99393.03;;;;
2021/03/20 12:57:34;;;;;;;10.9;7.7;;;;;;;0.83;60.13477;99391.13;;;;
2021/03/20 13:07:30;;;;;;;16.1;9;;;;;;;0.92;57.24121;99381.84;;;;
2021/03/20 13:17:26;;;;;;;19.2;9.9;;;;;;;0.82;59.94434;99375.45;;;;
2021/03/20 13:27:23;;;;;;;11.4;7.2;;;;;;;1.15;58.03906;99378.44;;;;
2021/03/20 13:37:21;;;;;;;10.3;6.8;;;;;;;1.67;55.18457;99386.6;;;;
2021/03/20 13:47:19;;;;;;;10.7;5.9;;;;;;;2.37;56.82324;99366.91;;;;
2021/03/20 13:57:16;;;;;;;8;4.9;;;;;;;2.49;54.40039;99364.22;;;;
2021/03/20 14:07:14;;;;;;;13.6;5.6;;;;;;;1.77;51.8252;99369.05;;;;
2021/03/20 14:17:12;;;;;;;12.6;4.7;;;;;;;1.35;51.48535;99362.22;;;;
2021/03/20 14:27:09;;;;;;;11.8;6.2;;;;;;;1.28;52.41211;99359.67;;;;
2021/03/20 14:37:07;;;;;;;8.9;5;;;;;;;1.33;52.55078;99356.31;;;;
2021/03/20 14:47:05;;;;;;;7.9;4;;;;;;;1.17;50.89551;99354.33;;;;
2021/03/20 14:57:02;;;;;;;11.1;5.8;;;;;;;1.67;51.86816;99344.09;;;;
2021/03/20 15:07:00;;;;;;;12.2;6.6;;;;;;;1.34;52.89648;99347.31;;;;
2021/03/20 15:16:58;;;;;;;7.8;5.3;;;;;;;0.68;53.50293;99311.16;;;;
2021/03/20 15:26:55;;;;;;;11.9;6.8;;;;;;;0.7;54.68359;99338.27;;;;
2021/03/20 15:36:53;;;;;;;14.2;6.3;;;;;;;0.14;54.24512;99335.91;;;;
2021/03/20 15:46:50;;;;;;;14.7;7.7;;;;;;;-0.06;55.19434;99337.98;;;;
2021/03/20 15:56:50;;;;;;;10.5;8.3;;;;;;;-0.44;56.25195;99343.45;;;;
2021/03/20 16:06:45;;;;;;;10.5;6.6;;;;;;;-0.54;57.19922;99335.2;;;;
2021/03/20 16:16:43;;;;;;;10.4;7.2;;;;;;;-0.69;58.24121;99332.88;;;;
2021/03/20 16:26:40;;;;;;;15.8;11.3;;;;;;;-0.87;58.55762;99334.67;;;;
2021/03/20 16:36:38;;;;;;;14.3;9.9;;;;;;;-1.03;59.72949;99336.81;;;;
2021/03/20 16:46:35;;;;;;;13.9;9.4;;;;;;;-1.29;58.86523;99334.35;;;;
2021/03/20 16:56:32;;;;;;;13.1;9.1;;;;;;;-1.42;60.21387;99338.91;;;;
2021/03/20 17:06:31;;;;;;;14.1;9.8;;;;;;;-1.58;59.05566;99333.08;;;;
2021/03/20 17:16:27;;;;;;;14.7;8.9;;;;;;;-1.68;58.68945;99321.34;;;;
2021/03/20 17:26:24;;;;;;;16.4;12.5;;;;;;;-1.82;59.95898;99330.34;;;;
2021/03/20 17:36:22;;;;;;;15.3;13.1;;;;;;;-1.97;61.81934;99332.41;;;;
2021/03/20 17:46:19;;;;;;;23.1;14.3;;;;;;;-2.13;62.67773;99339.8;;;;
2021/03/20 17:56:16;;;;;;;15.6;11;;;;;;;-2.17;63.01172;99340.41;;;;
2021/03/20 18:06:14;;;;;;;20.5;13.1;;;;;;;-2.22;62.23535;99333.09;;;;
2021/03/20 18:16:11;;;;;;;16.8;12.8;;;;;;;-2.44;63.25781;99329.09;;;;
2021/03/20 18:26:08;;;;;;;23;15.1;;;;;;;-2.76;64.7793;99316.74;;;;
2021/03/20 18:36:05;;;;;;;21.5;14.7;;;;;;;-3.01;65.8584;99326.27;;;;
2021/03/20 18:46:02;;;;;;;21.3;12.6;;;;;;;-3.21;66.50879;99340.25;;;;
2021/03/20 18:55:59;;;;;;;25.8;14;;;;;;;-3.52;67.26953;99350.52;;;;
2021/03/20 19:05:56;;;;;;;30.9;16.6;;;;;;;-3.64;67.9834;99345;;;;
2021/03/20 19:15:53;;;;;;;25.8;17.9;;;;;;;-3.82;68.42578;99331.59;;;;
2021/03/20 19:25:52;;;;;;;29.2;20.2;;;;;;;-4.3;70.33496;99328.09;;;;
2021/03/20 19:35:47;;;;;;;20.9;16.7;;;;;;;-4.58;71.88965;99337.83;;;;
2021/03/20 19:45:44;;;;;;;28;18.5;;;;;;;-4.75;72.28613;99339.94;;;;
2021/03/20 19:55:41;;;;;;;37.7;21.4;;;;;;;-4.66;75.65723;99335.36;;;;
2021/03/20 20:05:38;;;;;;;29.2;19.8;;;;;;;-4.84;74.66699;99300.84;;;;
2021/03/20 20:15:35;;;;;;;29.4;18.4;;;;;;;-5;75.04102;99324.78;;;;
2021/03/20 20:25:32;;;;;;;29.1;20.6;;;;;;;-5.34;75.7959;99320.22;;;;
2021/03/20 20:35:29;;;;;;;30.7;19.4;;;;;;;-5.63;76.73438;99319.34;;;;
2021/03/20 20:45:25;;;;;;;33.9;18.8;;;;;;;-5.68;79.13379;99307.75;;;;
2021/03/20 20:55:22;;;;;;;31.7;20.6;;;;;;;-5.65;79.19434;99310;;;;
2021/03/20 21:05:19;;;;;;;40.7;25;;;;;;;-5.6;78.1084;99308.47;;;;
2021/03/20 21:15:16;;;;;;;30.4;20;;;;;;;-5.78;78.21387;99289.69;;;;
2021/03/20 21:25:13;;;;;;;35.1;21.8;;;;;;;-5.86;78.98047;99281.13;;;;
2021/03/20 21:35:09;;;;;;;32.3;20.9;;;;;;;-6.11;79.17383;99284.09;;;;
2021/03/20 21:45:06;;;;;;;39.4;21.8;;;;;;;-6.16;80.82129;99283.84;;;;
2021/03/20 21:55:03;;;;;;;37.1;24.2;;;;;;;-6.28;82.73535;99274.02;;;;
2021/03/20 22:05:02;;;;;;;31.4;23.2;;;;;;;-6.45;83.14551;99278.61;;;;
2021/03/20 22:14:56;;;;;;;32;22.1;;;;;;;-6.38;84.57715;99263.78;;;;
2021/03/20 22:24:53;;;;;;;30.8;21.8;;;;;;;-6.46;84.8418;99227.19;;;;
2021/03/20 22:34:50;;;;;;;27.2;17.6;;;;;;;-6.26;85.20801;99257.09;;;;
2021/03/20 22:44:47;;;;;;;39.9;22.4;;;;;;;-6.17;85.53809;99244.66;;;;
